sensor_id;sensor_type;location;lat;lon;timestamp;temperature;humidity
20416;DHT22;10367;52.202;5.996;2022-08-19T00:01:36;17.80;99.90
20416;DHT22;10367;52.202;5.996;2022-08-19T00:04:08;17.70;99.90
20416;DHT22;10367;52.202;5.996;2022-08-19T00:06:40;17.70;99.90
20416;DHT22;10367;52.202;5.996;2022-08-19T00:09:12;17.70;99.90
20416;DHT22;10367;52.202;5.996;2022-08-19T00:11:42;17.70;99.90
20416;DHT22;10367;52.202;5.996;2022-08-19T00:14:12;17.60;99.90
20416;DHT22;10367;52.202;5.996;2022-08-19T00:16:44;17.50;99.90
20416;DHT22;10367;52.202;5.996;2022-08-19T00:19:15;17.50;99.90
20416;DHT22;10367;52.202;5.996;2022-08-19T00:21:45;17.50;99.90
20416;DHT22;10367;52.202;5.996;2022-08-19T00:24:14;17.50;99.90
20416;DHT22;10367;52.202;5.996;2022-08-19T00:26:44;17.50;99.90
20416;DHT22;10367;52.202;5.996;2022-08-19T00:29:15;17.50;99.90
20416;DHT22;10367;52.202;5.996;2022-08-19T00:31:45;17.50;99.90
20416;DHT22;10367;52.202;5.996;2022-08-19T00:34:16;17.50;99.90
20416;DHT22;10367;52.202;5.996;2022-08-19T00:36:47;17.50;99.90
20416;DHT22;10367;52.202;5.996;2022-08-19T00:39:16;17.50;99.90
20416;DHT22;10367;52.202;5.996;2022-08-19T00:41:46;17.50;99.90
20416;DHT22;10367;52.202;5.996;2022-08-19T00:44:18;17.40;99.90
20416;DHT22;10367;52.202;5.996;2022-08-19T00:46:55;17.30;99.90
20416;DHT22;10367;52.202;5.996;2022-08-19T00:49:28;17.20;99.90
20416;DHT22;10367;52.202;5.996;2022-08-19T00:52:01;17.10;99.90
20416;DHT22;10367;52.202;5.996;2022-08-19T00:54:31;17.10;99.90
20416;DHT22;10367;52.202;5.996;2022-08-19T00:57:02;17.20;99.90
20416;DHT22;10367;52.202;5.996;2022-08-19T00:59:35;17.20;99.90
20416;DHT22;10367;52.202;5.996;2022-08-19T01:02:26;17.20;99.90
20416;DHT22;10367;52.202;5.996;2022-08-19T01:04:55;17.20;99.90
20416;DHT22;10367;52.202;5.996;2022-08-19T01:07:26;17.30;99.90
20416;DHT22;10367;52.202;5.996;2022-08-19T01:10:03;17.30;99.90
20416;DHT22;10367;52.202;5.996;2022-08-19T01:12:32;17.30;99.90
20416;DHT22;10367;52.202;5.996;2022-08-19T01:15:01;17.30;99.90
20416;DHT22;10367;52.202;5.996;2022-08-19T01:17:31;17.20;99.90
20416;DHT22;10367;52.202;5.996;2022-08-19T01:20:00;17.10;99.90
20416;DHT22;10367;52.202;5.996;2022-08-19T01:22:31;17.00;99.90
20416;DHT22;10367;52.202;5.996;2022-08-19T01:25:03;17.00;99.90
20416;DHT22;10367;52.202;5.996;2022-08-19T01:27:43;16.90;99.90
20416;DHT22;10367;52.202;5.996;2022-08-19T01:30:14;17.00;99.90
20416;DHT22;10367;52.202;5.996;2022-08-19T01:32:43;17.00;99.90
20416;DHT22;10367;52.202;5.996;2022-08-19T01:35:13;17.10;99.90
20416;DHT22;10367;52.202;5.996;2022-08-19T01:37:49;17.10;99.90
20416;DHT22;10367;52.202;5.996;2022-08-19T01:40:20;17.00;99.90
20416;DHT22;10367;52.202;5.996;2022-08-19T01:42:50;17.00;99.90
20416;DHT22;10367;52.202;5.996;2022-08-19T01:45:21;17.00;99.90
20416;DHT22;10367;52.202;5.996;2022-08-19T01:47:50;17.00;99.90
20416;DHT22;10367;52.202;5.996;2022-08-19T01:50:29;17.10;99.90
20416;DHT22;10367;52.202;5.996;2022-08-19T01:53:02;17.10;99.90
20416;DHT22;10367;52.202;5.996;2022-08-19T01:55:36;17.20;99.90
20416;DHT22;10367;52.202;5.996;2022-08-19T01:58:12;17.20;99.90
20416;DHT22;10367;52.202;5.996;2022-08-19T02:00:43;17.20;99.90
20416;DHT22;10367;52.202;5.996;2022-08-19T02:03:13;17.20;99.90
20416;DHT22;10367;52.202;5.996;2022-08-19T02:05:43;17.20;99.90
20416;DHT22;10367;52.202;5.996;2022-08-19T02:08:14;17.20;99.90
20416;DHT22;10367;52.202;5.996;2022-08-19T02:10:43;17.10;99.90
20416;DHT22;10367;52.202;5.996;2022-08-19T02:13:13;17.00;99.90
20416;DHT22;10367;52.202;5.996;2022-08-19T02:15:47;16.90;99.90
20416;DHT22;10367;52.202;5.996;2022-08-19T02:18:16;16.90;99.90
20416;DHT22;10367;52.202;5.996;2022-08-19T02:20:45;17.00;99.90
20416;DHT22;10367;52.202;5.996;2022-08-19T02:23:16;17.00;99.90
20416;DHT22;10367;52.202;5.996;2022-08-19T02:25:47;17.00;99.90
20416;DHT22;10367;52.202;5.996;2022-08-19T02:28:16;17.00;99.90
20416;DHT22;10367;52.202;5.996;2022-08-19T02:30:46;16.90;99.90
20416;DHT22;10367;52.202;5.996;2022-08-19T02:33:15;16.80;99.90
20416;DHT22;10367;52.202;5.996;2022-08-19T02:35:45;16.80;99.90
20416;DHT22;10367;52.202;5.996;2022-08-19T02:38:15;16.70;99.90
20416;DHT22;10367;52.202;5.996;2022-08-19T02:40:59;16.70;99.90
20416;DHT22;10367;52.202;5.996;2022-08-19T02:43:30;16.70;99.90
20416;DHT22;10367;52.202;5.996;2022-08-19T02:46:01;16.60;99.90
20416;DHT22;10367;52.202;5.996;2022-08-19T02:48:30;16.60;99.90
20416;DHT22;10367;52.202;5.996;2022-08-19T02:51:00;16.60;99.90
20416;DHT22;10367;52.202;5.996;2022-08-19T02:53:30;16.60;99.90
20416;DHT22;10367;52.202;5.996;2022-08-19T02:55:59;16.60;99.90
20416;DHT22;10367;52.202;5.996;2022-08-19T02:58:28;16.60;99.90
20416;DHT22;10367;52.202;5.996;2022-08-19T03:00:57;16.60;99.90
20416;DHT22;10367;52.202;5.996;2022-08-19T03:03:27;16.60;99.90
20416;DHT22;10367;52.202;5.996;2022-08-19T03:06:08;16.80;99.90
20416;DHT22;10367;52.202;5.996;2022-08-19T03:08:39;16.90;99.90
20416;DHT22;10367;52.202;5.996;2022-08-19T03:11:13;17.00;99.90
20416;DHT22;10367;52.202;5.996;2022-08-19T03:13:42;17.10;99.90
20416;DHT22;10367;52.202;5.996;2022-08-19T03:16:12;17.10;99.90
20416;DHT22;10367;52.202;5.996;2022-08-19T03:18:41;17.10;99.90
20416;DHT22;10367;52.202;5.996;2022-08-19T03:21:14;17.10;99.90
20416;DHT22;10367;52.202;5.996;2022-08-19T03:23:45;17.10;99.90
20416;DHT22;10367;52.202;5.996;2022-08-19T03:26:14;17.00;99.90
20416;DHT22;10367;52.202;5.996;2022-08-19T03:28:44;16.90;99.90
20416;DHT22;10367;52.202;5.996;2022-08-19T03:31:26;16.80;99.90
20416;DHT22;10367;52.202;5.996;2022-08-19T03:34:16;16.70;99.90
20416;DHT22;10367;52.202;5.996;2022-08-19T03:36:46;16.60;99.90
20416;DHT22;10367;52.202;5.996;2022-08-19T03:39:18;16.60;99.90
20416;DHT22;10367;52.202;5.996;2022-08-19T03:41:48;16.60;99.90
20416;DHT22;10367;52.202;5.996;2022-08-19T03:44:37;16.60;99.90
20416;DHT22;10367;52.202;5.996;2022-08-19T03:47:06;16.50;99.90
20416;DHT22;10367;52.202;5.996;2022-08-19T03:49:35;16.50;99.90
20416;DHT22;10367;52.202;5.996;2022-08-19T03:52:04;16.60;99.90
20416;DHT22;10367;52.202;5.996;2022-08-19T03:54:36;16.50;99.90
20416;DHT22;10367;52.202;5.996;2022-08-19T03:57:06;16.50;99.90
20416;DHT22;10367;52.202;5.996;2022-08-19T03:59:37;16.60;99.90
20416;DHT22;10367;52.202;5.996;2022-08-19T04:02:09;16.60;99.90
20416;DHT22;10367;52.202;5.996;2022-08-19T04:04:40;16.60;99.90
20416;DHT22;10367;52.202;5.996;2022-08-19T04:07:12;16.60;99.90
20416;DHT22;10367;52.202;5.996;2022-08-19T04:09:45;16.60;99.90
20416;DHT22;10367;52.202;5.996;2022-08-19T04:12:14;16.70;99.90
20416;DHT22;10367;52.202;5.996;2022-08-19T04:15:02;16.70;99.90
20416;DHT22;10367;52.202;5.996;2022-08-19T04:17:31;16.60;99.90
20416;DHT22;10367;52.202;5.996;2022-08-19T04:20:00;16.50;99.90
20416;DHT22;10367;52.202;5.996;2022-08-19T04:22:33;16.40;99.90
20416;DHT22;10367;52.202;5.996;2022-08-19T04:25:03;16.20;99.90
20416;DHT22;10367;52.202;5.996;2022-08-19T04:27:32;16.30;99.90
20416;DHT22;10367;52.202;5.996;2022-08-19T04:30:02;16.20;99.90
20416;DHT22;10367;52.202;5.996;2022-08-19T04:32:31;16.20;99.90
20416;DHT22;10367;52.202;5.996;2022-08-19T04:34:59;16.30;99.90
20416;DHT22;10367;52.202;5.996;2022-08-19T04:37:44;16.30;99.90
20416;DHT22;10367;52.202;5.996;2022-08-19T04:40:15;16.30;99.90
20416;DHT22;10367;52.202;5.996;2022-08-19T04:43:01;16.30;99.90
20416;DHT22;10367;52.202;5.996;2022-08-19T04:45:30;16.30;99.90
20416;DHT22;10367;52.202;5.996;2022-08-19T04:48:10;16.30;99.90
20416;DHT22;10367;52.202;5.996;2022-08-19T04:50:55;16.20;99.90
20416;DHT22;10367;52.202;5.996;2022-08-19T04:53:26;16.30;99.90
20416;DHT22;10367;52.202;5.996;2022-08-19T04:56:08;16.30;99.90
20416;DHT22;10367;52.202;5.996;2022-08-19T04:58:38;16.30;99.90
20416;DHT22;10367;52.202;5.996;2022-08-19T05:01:09;16.30;99.90
20416;DHT22;10367;52.202;5.996;2022-08-19T05:03:39;16.30;99.90
20416;DHT22;10367;52.202;5.996;2022-08-19T05:06:11;16.30;99.90
20416;DHT22;10367;52.202;5.996;2022-08-19T05:08:42;16.30;99.90
20416;DHT22;10367;52.202;5.996;2022-08-19T05:11:15;16.30;99.90
20416;DHT22;10367;52.202;5.996;2022-08-19T05:13:45;16.30;99.90
20416;DHT22;10367;52.202;5.996;2022-08-19T05:16:16;16.30;99.90
20416;DHT22;10367;52.202;5.996;2022-08-19T05:18:46;16.30;99.90
20416;DHT22;10367;52.202;5.996;2022-08-19T05:21:33;16.20;99.90
20416;DHT22;10367;52.202;5.996;2022-08-19T05:24:21;16.20;99.90
20416;DHT22;10367;52.202;5.996;2022-08-19T05:26:53;16.10;99.90
20416;DHT22;10367;52.202;5.996;2022-08-19T05:29:25;16.20;99.90
20416;DHT22;10367;52.202;5.996;2022-08-19T05:32:04;16.30;99.90
20416;DHT22;10367;52.202;5.996;2022-08-19T05:34:36;16.40;99.90
20416;DHT22;10367;52.202;5.996;2022-08-19T05:37:06;16.40;99.90
20416;DHT22;10367;52.202;5.996;2022-08-19T05:39:37;16.50;99.90
20416;DHT22;10367;52.202;5.996;2022-08-19T05:42:09;16.60;99.90
20416;DHT22;10367;52.202;5.996;2022-08-19T05:44:41;16.70;99.90
20416;DHT22;10367;52.202;5.996;2022-08-19T05:47:12;16.80;99.90
20416;DHT22;10367;52.202;5.996;2022-08-19T05:49:42;16.80;99.90
20416;DHT22;10367;52.202;5.996;2022-08-19T05:52:13;16.90;99.90
20416;DHT22;10367;52.202;5.996;2022-08-19T05:54:45;17.00;99.90
20416;DHT22;10367;52.202;5.996;2022-08-19T05:57:19;16.90;99.90
20416;DHT22;10367;52.202;5.996;2022-08-19T05:59:48;17.00;99.90
20416;DHT22;10367;52.202;5.996;2022-08-19T06:02:25;17.10;99.90
20416;DHT22;10367;52.202;5.996;2022-08-19T06:04:53;17.10;99.90
20416;DHT22;10367;52.202;5.996;2022-08-19T06:07:22;17.20;99.90
20416;DHT22;10367;52.202;5.996;2022-08-19T06:09:52;17.30;99.90
20416;DHT22;10367;52.202;5.996;2022-08-19T06:12:29;17.30;99.90
20416;DHT22;10367;52.202;5.996;2022-08-19T06:15:01;17.40;99.90
20416;DHT22;10367;52.202;5.996;2022-08-19T06:17:31;17.50;99.90
20416;DHT22;10367;52.202;5.996;2022-08-19T06:20:03;17.50;99.90
20416;DHT22;10367;52.202;5.996;2022-08-19T06:22:35;17.60;99.90
20416;DHT22;10367;52.202;5.996;2022-08-19T06:25:06;17.60;99.90
20416;DHT22;10367;52.202;5.996;2022-08-19T06:27:38;17.70;99.90
20416;DHT22;10367;52.202;5.996;2022-08-19T06:30:27;17.70;99.90
20416;DHT22;10367;52.202;5.996;2022-08-19T06:32:56;17.70;99.90
20416;DHT22;10367;52.202;5.996;2022-08-19T06:35:24;17.80;99.90
20416;DHT22;10367;52.202;5.996;2022-08-19T06:37:54;17.90;99.90
20416;DHT22;10367;52.202;5.996;2022-08-19T06:40:24;17.90;99.90
20416;DHT22;10367;52.202;5.996;2022-08-19T06:42:56;18.00;99.90
20416;DHT22;10367;52.202;5.996;2022-08-19T06:45:29;18.10;99.90
20416;DHT22;10367;52.202;5.996;2022-08-19T06:48:02;18.20;99.90
20416;DHT22;10367;52.202;5.996;2022-08-19T06:50:31;18.30;99.90
20416;DHT22;10367;52.202;5.996;2022-08-19T06:53:05;18.40;99.90
20416;DHT22;10367;52.202;5.996;2022-08-19T06:55:34;18.50;99.90
20416;DHT22;10367;52.202;5.996;2022-08-19T06:58:06;18.60;99.90
20416;DHT22;10367;52.202;5.996;2022-08-19T07:00:35;18.70;99.90
20416;DHT22;10367;52.202;5.996;2022-08-19T07:03:05;18.80;99.90
20416;DHT22;10367;52.202;5.996;2022-08-19T07:05:39;19.00;99.90
20416;DHT22;10367;52.202;5.996;2022-08-19T07:08:12;19.10;99.90
20416;DHT22;10367;52.202;5.996;2022-08-19T07:10:46;19.20;99.90
20416;DHT22;10367;52.202;5.996;2022-08-19T07:13:18;19.30;99.90
20416;DHT22;10367;52.202;5.996;2022-08-19T07:15:46;19.40;99.90
20416;DHT22;10367;52.202;5.996;2022-08-19T07:18:18;19.60;99.90
20416;DHT22;10367;52.202;5.996;2022-08-19T07:20:48;19.70;99.90
20416;DHT22;10367;52.202;5.996;2022-08-19T07:23:16;19.80;99.90
20416;DHT22;10367;52.202;5.996;2022-08-19T07:25:45;19.90;99.90
20416;DHT22;10367;52.202;5.996;2022-08-19T07:28:20;20.00;99.90
20416;DHT22;10367;52.202;5.996;2022-08-19T07:30:52;20.10;99.90
20416;DHT22;10367;52.202;5.996;2022-08-19T07:33:22;20.10;99.90
20416;DHT22;10367;52.202;5.996;2022-08-19T07:35:54;20.10;99.90
20416;DHT22;10367;52.202;5.996;2022-08-19T07:38:22;20.10;99.90
20416;DHT22;10367;52.202;5.996;2022-08-19T07:40:53;20.10;99.90
20416;DHT22;10367;52.202;5.996;2022-08-19T07:43:24;20.10;99.90
20416;DHT22;10367;52.202;5.996;2022-08-19T07:46:01;20.10;99.90
20416;DHT22;10367;52.202;5.996;2022-08-19T07:48:30;20.20;99.90
20416;DHT22;10367;52.202;5.996;2022-08-19T07:51:02;20.30;99.90
20416;DHT22;10367;52.202;5.996;2022-08-19T07:53:32;20.50;99.90
20416;DHT22;10367;52.202;5.996;2022-08-19T07:56:06;20.60;99.90
20416;DHT22;10367;52.202;5.996;2022-08-19T07:58:39;20.60;99.90
20416;DHT22;10367;52.202;5.996;2022-08-19T08:01:10;20.70;99.90
20416;DHT22;10367;52.202;5.996;2022-08-19T08:03:39;20.70;99.90
20416;DHT22;10367;52.202;5.996;2022-08-19T08:06:26;20.80;99.90
20416;DHT22;10367;52.202;5.996;2022-08-19T08:09:22;20.80;99.90
20416;DHT22;10367;52.202;5.996;2022-08-19T08:11:54;20.90;99.90
20416;DHT22;10367;52.202;5.996;2022-08-19T08:14:38;21.00;99.90
20416;DHT22;10367;52.202;5.996;2022-08-19T08:17:11;21.10;99.90
20416;DHT22;10367;52.202;5.996;2022-08-19T08:19:41;21.10;99.90
20416;DHT22;10367;52.202;5.996;2022-08-19T08:22:13;21.10;99.90
20416;DHT22;10367;52.202;5.996;2022-08-19T08:25:04;21.10;99.90
20416;DHT22;10367;52.202;5.996;2022-08-19T08:27:36;21.10;99.90
20416;DHT22;10367;52.202;5.996;2022-08-19T08:30:09;21.20;99.90
20416;DHT22;10367;52.202;5.996;2022-08-19T08:32:39;21.20;99.90
20416;DHT22;10367;52.202;5.996;2022-08-19T08:35:11;21.20;99.90
20416;DHT22;10367;52.202;5.996;2022-08-19T08:37:40;21.30;99.90
20416;DHT22;10367;52.202;5.996;2022-08-19T08:40:17;21.30;99.90
20416;DHT22;10367;52.202;5.996;2022-08-19T08:42:51;21.50;99.90
20416;DHT22;10367;52.202;5.996;2022-08-19T08:45:24;21.60;99.90
20416;DHT22;10367;52.202;5.996;2022-08-19T08:48:02;21.70;99.90
20416;DHT22;10367;52.202;5.996;2022-08-19T08:50:49;21.80;99.90
20416;DHT22;10367;52.202;5.996;2022-08-19T08:53:21;21.80;99.90
20416;DHT22;10367;52.202;5.996;2022-08-19T08:56:02;21.80;99.90
20416;DHT22;10367;52.202;5.996;2022-08-19T08:58:51;21.90;99.90
20416;DHT22;10367;52.202;5.996;2022-08-19T09:01:24;22.00;99.90
20416;DHT22;10367;52.202;5.996;2022-08-19T09:03:57;22.00;99.90
20416;DHT22;10367;52.202;5.996;2022-08-19T09:06:36;22.10;99.90
20416;DHT22;10367;52.202;5.996;2022-08-19T09:09:14;22.10;99.90
20416;DHT22;10367;52.202;5.996;2022-08-19T09:11:55;22.20;99.90
20416;DHT22;10367;52.202;5.996;2022-08-19T09:14:35;22.40;99.90
20416;DHT22;10367;52.202;5.996;2022-08-19T09:17:20;22.60;99.90
20416;DHT22;10367;52.202;5.996;2022-08-19T09:20:11;22.70;99.90
20416;DHT22;10367;52.202;5.996;2022-08-19T09:22:42;22.80;99.90
20416;DHT22;10367;52.202;5.996;2022-08-19T09:25:15;22.90;99.90
20416;DHT22;10367;52.202;5.996;2022-08-19T09:27:54;23.00;99.90
20416;DHT22;10367;52.202;5.996;2022-08-19T09:30:32;23.20;99.90
20416;DHT22;10367;52.202;5.996;2022-08-19T09:33:02;23.20;99.90
20416;DHT22;10367;52.202;5.996;2022-08-19T09:35:32;23.40;99.90
20416;DHT22;10367;52.202;5.996;2022-08-19T09:38:19;23.70;99.90
20416;DHT22;10367;52.202;5.996;2022-08-19T09:40:48;23.80;99.90
20416;DHT22;10367;52.202;5.996;2022-08-19T09:43:17;23.90;99.90
20416;DHT22;10367;52.202;5.996;2022-08-19T09:46:07;23.90;99.90
20416;DHT22;10367;52.202;5.996;2022-08-19T09:48:38;23.90;99.90
20416;DHT22;10367;52.202;5.996;2022-08-19T09:51:09;24.00;99.90
20416;DHT22;10367;52.202;5.996;2022-08-19T09:53:38;24.10;99.90
20416;DHT22;10367;52.202;5.996;2022-08-19T09:56:07;24.40;99.90
20416;DHT22;10367;52.202;5.996;2022-08-19T09:58:36;24.50;99.90
20416;DHT22;10367;52.202;5.996;2022-08-19T10:01:07;24.50;99.90
20416;DHT22;10367;52.202;5.996;2022-08-19T10:03:38;24.70;99.90
20416;DHT22;10367;52.202;5.996;2022-08-19T10:06:07;24.80;99.90
20416;DHT22;10367;52.202;5.996;2022-08-19T10:08:44;24.90;99.90
20416;DHT22;10367;52.202;5.996;2022-08-19T10:11:17;25.10;99.90
20416;DHT22;10367;52.202;5.996;2022-08-19T10:14:05;25.00;99.90
20416;DHT22;10367;52.202;5.996;2022-08-19T10:16:36;25.20;99.90
20416;DHT22;10367;52.202;5.996;2022-08-19T10:19:07;25.20;99.90
20416;DHT22;10367;52.202;5.996;2022-08-19T10:21:37;25.10;99.90
20416;DHT22;10367;52.202;5.996;2022-08-19T10:24:06;24.90;99.90
20416;DHT22;10367;52.202;5.996;2022-08-19T10:26:38;25.10;99.90
20416;DHT22;10367;52.202;5.996;2022-08-19T10:29:09;25.20;99.90
20416;DHT22;10367;52.202;5.996;2022-08-19T10:31:38;25.40;99.90
20416;DHT22;10367;52.202;5.996;2022-08-19T10:34:29;25.60;99.90
20416;DHT22;10367;52.202;5.996;2022-08-19T10:36:59;25.50;99.90
20416;DHT22;10367;52.202;5.996;2022-08-19T10:39:29;25.70;99.90
20416;DHT22;10367;52.202;5.996;2022-08-19T10:42:09;25.50;99.90
20416;DHT22;10367;52.202;5.996;2022-08-19T10:44:40;25.60;99.90
20416;DHT22;10367;52.202;5.996;2022-08-19T10:47:10;25.70;99.90
20416;DHT22;10367;52.202;5.996;2022-08-19T10:49:54;25.90;99.90
20416;DHT22;10367;52.202;5.996;2022-08-19T10:52:42;26.10;99.90
20416;DHT22;10367;52.202;5.996;2022-08-19T10:55:18;26.50;99.90
20416;DHT22;10367;52.202;5.996;2022-08-19T10:58:10;26.40;99.90
20416;DHT22;10367;52.202;5.996;2022-08-19T11:00:39;26.60;99.90
20416;DHT22;10367;52.202;5.996;2022-08-19T11:03:09;26.70;99.90
20416;DHT22;10367;52.202;5.996;2022-08-19T11:05:39;27.00;99.90
20416;DHT22;10367;52.202;5.996;2022-08-19T11:08:08;27.00;99.90
20416;DHT22;10367;52.202;5.996;2022-08-19T11:10:51;27.20;99.90
20416;DHT22;10367;52.202;5.996;2022-08-19T11:13:28;26.80;99.90
20416;DHT22;10367;52.202;5.996;2022-08-19T11:15:59;26.70;99.90
20416;DHT22;10367;52.202;5.996;2022-08-19T11:18:35;26.70;99.90
20416;DHT22;10367;52.202;5.996;2022-08-19T11:21:12;27.10;99.90
20416;DHT22;10367;52.202;5.996;2022-08-19T11:23:41;27.40;99.90
20416;DHT22;10367;52.202;5.996;2022-08-19T11:26:10;27.50;99.90
20416;DHT22;10367;52.202;5.996;2022-08-19T11:28:40;27.50;99.90
20416;DHT22;10367;52.202;5.996;2022-08-19T11:31:12;27.50;99.90
20416;DHT22;10367;52.202;5.996;2022-08-19T11:33:42;27.40;99.90
20416;DHT22;10367;52.202;5.996;2022-08-19T11:36:16;27.70;99.90
20416;DHT22;10367;52.202;5.996;2022-08-19T11:38:45;27.90;99.90
20416;DHT22;10367;52.202;5.996;2022-08-19T11:41:18;27.70;99.90
20416;DHT22;10367;52.202;5.996;2022-08-19T11:43:47;27.30;99.90
20416;DHT22;10367;52.202;5.996;2022-08-19T11:46:16;27.60;99.90
20416;DHT22;10367;52.202;5.996;2022-08-19T11:48:45;27.20;99.90
20416;DHT22;10367;52.202;5.996;2022-08-19T11:51:18;26.80;99.90
20416;DHT22;10367;52.202;5.996;2022-08-19T11:53:48;27.20;99.90
20416;DHT22;10367;52.202;5.996;2022-08-19T11:56:18;27.10;99.90
20416;DHT22;10367;52.202;5.996;2022-08-19T11:58:47;27.10;99.90
20416;DHT22;10367;52.202;5.996;2022-08-19T12:01:18;27.70;99.90
20416;DHT22;10367;52.202;5.996;2022-08-19T12:03:49;27.50;99.90
20416;DHT22;10367;52.202;5.996;2022-08-19T12:06:22;27.70;99.90
20416;DHT22;10367;52.202;5.996;2022-08-19T12:08:56;28.40;99.90
20416;DHT22;10367;52.202;5.996;2022-08-19T12:11:27;29.00;99.20
20416;DHT22;10367;52.202;5.996;2022-08-19T12:14:01;29.00;97.90
20416;DHT22;10367;52.202;5.996;2022-08-19T12:16:30;29.10;97.60
20416;DHT22;10367;52.202;5.996;2022-08-19T12:19:00;28.80;98.40
20416;DHT22;10367;52.202;5.996;2022-08-19T12:21:34;29.00;97.80
20416;DHT22;10367;52.202;5.996;2022-08-19T12:24:05;28.40;97.90
20416;DHT22;10367;52.202;5.996;2022-08-19T12:26:35;28.20;97.90
20416;DHT22;10367;52.202;5.996;2022-08-19T12:29:20;28.20;97.70
20416;DHT22;10367;52.202;5.996;2022-08-19T12:31:56;28.80;97.00
20416;DHT22;10367;52.202;5.996;2022-08-19T12:34:31;28.80;96.10
20416;DHT22;10367;52.202;5.996;2022-08-19T12:37:03;28.50;96.30
20416;DHT22;10367;52.202;5.996;2022-08-19T12:39:35;28.60;96.00
20416;DHT22;10367;52.202;5.996;2022-08-19T12:42:05;28.40;96.00
20416;DHT22;10367;52.202;5.996;2022-08-19T12:44:36;28.50;96.00
20416;DHT22;10367;52.202;5.996;2022-08-19T12:47:09;28.80;94.90
20416;DHT22;10367;52.202;5.996;2022-08-19T12:49:39;29.00;94.20
20416;DHT22;10367;52.202;5.996;2022-08-19T12:52:24;29.30;93.20
20416;DHT22;10367;52.202;5.996;2022-08-19T12:54:56;29.20;92.80
20416;DHT22;10367;52.202;5.996;2022-08-19T12:57:27;29.70;92.00
20416;DHT22;10367;52.202;5.996;2022-08-19T13:00:03;29.90;91.70
20416;DHT22;10367;52.202;5.996;2022-08-19T13:02:33;30.30;90.90
20416;DHT22;10367;52.202;5.996;2022-08-19T13:05:07;30.70;90.20
20416;DHT22;10367;52.202;5.996;2022-08-19T13:07:40;30.70;89.80
20416;DHT22;10367;52.202;5.996;2022-08-19T13:10:10;30.80;88.10
20416;DHT22;10367;52.202;5.996;2022-08-19T13:12:39;30.00;88.60
20416;DHT22;10367;52.202;5.996;2022-08-19T13:15:10;29.60;89.80
20416;DHT22;10367;52.202;5.996;2022-08-19T13:17:41;29.40;90.00
20416;DHT22;10367;52.202;5.996;2022-08-19T13:20:11;29.30;90.30
20416;DHT22;10367;52.202;5.996;2022-08-19T13:22:41;29.70;90.00
20416;DHT22;10367;52.202;5.996;2022-08-19T13:25:11;29.50;89.10
20416;DHT22;10367;52.202;5.996;2022-08-19T13:27:40;28.70;90.10
20416;DHT22;10367;52.202;5.996;2022-08-19T13:30:11;28.50;90.60
20416;DHT22;10367;52.202;5.996;2022-08-19T13:32:58;28.80;90.40
20416;DHT22;10367;52.202;5.996;2022-08-19T13:35:45;28.80;90.60
20416;DHT22;10367;52.202;5.996;2022-08-19T13:38:18;29.40;89.80
20416;DHT22;10367;52.202;5.996;2022-08-19T13:40:48;29.60;88.80
20416;DHT22;10367;52.202;5.996;2022-08-19T13:43:19;29.30;89.50
20416;DHT22;10367;52.202;5.996;2022-08-19T13:45:51;29.20;90.00
20416;DHT22;10367;52.202;5.996;2022-08-19T13:48:21;28.70;90.40
20416;DHT22;10367;52.202;5.996;2022-08-19T13:50:50;28.70;90.40
20416;DHT22;10367;52.202;5.996;2022-08-19T13:53:21;28.60;90.50
20416;DHT22;10367;52.202;5.996;2022-08-19T13:55:50;28.70;90.30
20416;DHT22;10367;52.202;5.996;2022-08-19T13:58:21;28.90;90.20
20416;DHT22;10367;52.202;5.996;2022-08-19T14:00:50;29.20;89.90
20416;DHT22;10367;52.202;5.996;2022-08-19T14:03:19;29.40;88.90
20416;DHT22;10367;52.202;5.996;2022-08-19T14:05:48;28.60;90.40
20416;DHT22;10367;52.202;5.996;2022-08-19T14:08:17;28.10;91.60
20416;DHT22;10367;52.202;5.996;2022-08-19T14:10:47;27.40;93.00
20416;DHT22;10367;52.202;5.996;2022-08-19T14:13:18;26.90;94.70
20416;DHT22;10367;52.202;5.996;2022-08-19T14:15:48;26.80;95.90
20416;DHT22;10367;52.202;5.996;2022-08-19T14:18:18;26.70;97.00
20416;DHT22;10367;52.202;5.996;2022-08-19T14:20:46;26.30;97.60
20416;DHT22;10367;52.202;5.996;2022-08-19T14:23:16;25.90;99.20
20416;DHT22;10367;52.202;5.996;2022-08-19T14:25:46;25.60;99.90
20416;DHT22;10367;52.202;5.996;2022-08-19T14:28:15;25.40;99.90
20416;DHT22;10367;52.202;5.996;2022-08-19T14:30:44;25.30;99.90
20416;DHT22;10367;52.202;5.996;2022-08-19T14:33:13;25.00;99.90
20416;DHT22;10367;52.202;5.996;2022-08-19T14:35:41;24.70;99.90
20416;DHT22;10367;52.202;5.996;2022-08-19T14:38:16;24.50;99.90
20416;DHT22;10367;52.202;5.996;2022-08-19T14:41:09;24.60;99.90
20416;DHT22;10367;52.202;5.996;2022-08-19T14:43:39;24.70;99.90
20416;DHT22;10367;52.202;5.996;2022-08-19T14:46:08;24.60;99.90
20416;DHT22;10367;52.202;5.996;2022-08-19T14:48:37;24.40;99.90
20416;DHT22;10367;52.202;5.996;2022-08-19T14:51:08;24.20;99.90
20416;DHT22;10367;52.202;5.996;2022-08-19T14:53:37;24.10;99.90
20416;DHT22;10367;52.202;5.996;2022-08-19T14:56:12;23.90;99.90
20416;DHT22;10367;52.202;5.996;2022-08-19T14:58:42;23.50;99.90
20416;DHT22;10367;52.202;5.996;2022-08-19T15:01:12;23.40;99.90
20416;DHT22;10367;52.202;5.996;2022-08-19T15:03:41;23.10;99.90
20416;DHT22;10367;52.202;5.996;2022-08-19T15:06:10;22.90;99.90
20416;DHT22;10367;52.202;5.996;2022-08-19T15:08:40;22.80;99.90
20416;DHT22;10367;52.202;5.996;2022-08-19T15:11:14;22.60;99.90
20416;DHT22;10367;52.202;5.996;2022-08-19T15:13:44;22.30;99.90
20416;DHT22;10367;52.202;5.996;2022-08-19T15:16:14;21.90;99.90
20416;DHT22;10367;52.202;5.996;2022-08-19T15:18:46;21.80;99.90
20416;DHT22;10367;52.202;5.996;2022-08-19T15:21:17;22.00;99.90
20416;DHT22;10367;52.202;5.996;2022-08-19T15:23:54;22.30;99.90
20416;DHT22;10367;52.202;5.996;2022-08-19T15:26:24;22.50;99.90
20416;DHT22;10367;52.202;5.996;2022-08-19T15:28:55;22.80;99.90
20416;DHT22;10367;52.202;5.996;2022-08-19T15:31:24;22.90;99.90
20416;DHT22;10367;52.202;5.996;2022-08-19T15:33:56;23.00;99.90
20416;DHT22;10367;52.202;5.996;2022-08-19T15:36:26;23.20;99.90
20416;DHT22;10367;52.202;5.996;2022-08-19T15:38:54;23.40;99.90
20416;DHT22;10367;52.202;5.996;2022-08-19T15:41:27;23.30;99.90
20416;DHT22;10367;52.202;5.996;2022-08-19T15:43:59;23.40;99.90
20416;DHT22;10367;52.202;5.996;2022-08-19T15:46:32;23.40;99.90
20416;DHT22;10367;52.202;5.996;2022-08-19T15:49:01;23.40;99.90
20416;DHT22;10367;52.202;5.996;2022-08-19T15:51:32;23.10;99.90
20416;DHT22;10367;52.202;5.996;2022-08-19T15:54:03;23.20;99.90
20416;DHT22;10367;52.202;5.996;2022-08-19T15:56:33;23.40;99.90
20416;DHT22;10367;52.202;5.996;2022-08-19T15:59:25;23.30;99.90
20416;DHT22;10367;52.202;5.996;2022-08-19T16:02:14;23.50;99.90
20416;DHT22;10367;52.202;5.996;2022-08-19T16:05:00;23.50;99.90